Time;durP1;ratioP1;P1;durP2;ratioP2;P2;SDS_P1;SDS_P2;PMS_P1;PMS_P2;Temp;Humidity;BMP_temperature;BMP_pressure;BME280_temperature;BME280_humidity;BME280_pressure;Samples;Min_cycle;Max_cycle;Signal;HPM_P1;HPM_P2
2022/03/06 00:21:37;;;;;;;3.12;2.83;;;;;;;;;;5174077;27;20077;-74
2022/03/06 00:24:03;;;;;;;4.87;2.75;;;;;;;;;;5179811;27;20086;-74
2022/03/06 00:26:29;;;;;;;3.25;2.80;;;;;;;;;;5174858;27;20090;-74
2022/03/06 00:28:55;;;;;;;4.40;2.90;;;;;;;;;;5200206;27;20100;-75
2022/03/06 00:31:24;;;;;;;6.30;2.90;;;;;;;;;;5146559;27;20183;-72
2022/03/06 00:33:54;;;;;;;3.37;3.00;;;;;;;;;;5181134;27;20114;-67
2022/03/06 00:36:20;;;;;;;3.28;2.92;;;;;;;;;;5200183;27;20504;-68
2022/03/06 00:38:46;;;;;;;4.03;3.20;;;;;;;;;;5181402;27;20437;-72
2022/03/06 00:41:13;;;;;;;3.80;3.10;;;;;;;;;;5181064;27;20090;-73
2022/03/06 00:43:39;;;;;;;6.03;2.90;;;;;;;;;;5180949;27;20089;-75
2022/03/06 00:46:06;;;;;;;3.20;2.67;;;;;;;;;;5181156;27;20412;-73
2022/03/06 00:48:32;;;;;;;2.90;2.60;;;;;;;;;;5181155;27;20088;-72
2022/03/06 00:50:58;;;;;;;2.92;2.62;;;;;;;;;;5200318;27;20065;-72
2022/03/06 00:53:24;;;;;;;5.70;2.90;;;;;;;;;;5164066;27;20097;-66
2022/03/06 00:55:50;;;;;;;3.37;2.60;;;;;;;;;;5198238;27;20094;-63
2022/03/06 00:58:17;;;;;;;3.97;2.50;;;;;;;;;;5200569;27;20073;-62
2022/03/06 01:00:46;;;;;;;5.45;2.90;;;;;;;;;;5200272;27;20094;-63
2022/03/06 01:03:20;;;;;;;3.12;2.70;;;;;;;;;;5200346;27;20086;-62
2022/03/06 01:05:46;;;;;;;6.10;2.65;;;;;;;;;;5181139;27;20104;-67
2022/03/06 01:08:13;;;;;;;4.03;2.87;;;;;;;;;;5164072;27;20096;-65
2022/03/06 01:10:40;;;;;;;3.50;2.70;;;;;;;;;;5198471;27;20071;-67
2022/03/06 01:13:08;;;;;;;4.28;2.85;;;;;;;;;;5199734;27;20101;-67
2022/03/06 01:15:34;;;;;;;4.70;2.90;;;;;;;;;;5201590;27;20073;-73
2022/03/06 01:18:01;;;;;;;3.47;2.95;;;;;;;;;;5164932;27;20101;-73
2022/03/06 01:20:27;;;;;;;3.65;3.00;;;;;;;;;;5164993;27;20082;-73
2022/03/06 01:22:53;;;;;;;4.10;3.00;;;;;;;;;;5182988;27;20109;-71
2022/03/06 01:25:20;;;;;;;2.78;2.50;;;;;;;;;;5182118;27;20090;-75
2022/03/06 01:27:46;;;;;;;3.58;3.03;;;;;;;;;;5165131;27;20118;-74
2022/03/06 01:30:15;;;;;;;3.35;3.03;;;;;;;;;;5201919;27;20082;-74
2022/03/06 01:32:42;;;;;;;4.47;2.75;;;;;;;;;;5200600;27;20465;-75
2022/03/06 01:35:08;;;;;;;4.45;2.95;;;;;;;;;;5165332;27;20092;-74
2022/03/06 01:37:34;;;;;;;2.70;2.50;;;;;;;;;;5182485;27;20089;-74
2022/03/06 01:40:00;;;;;;;4.37;3.08;;;;;;;;;;5182111;27;20089;-74
2022/03/06 01:42:27;;;;;;;3.10;2.80;;;;;;;;;;5200033;27;20086;-74
2022/03/06 01:44:53;;;;;;;3.20;2.67;;;;;;;;;;5200263;27;20150;-77
2022/03/06 01:47:32;;;;;;;3.20;2.90;;;;;;;;;;5183802;27;20182;-74
2022/03/06 01:49:58;;;;;;;3.33;2.87;;;;;;;;;;5201751;27;20574;-77
2022/03/06 01:52:24;;;;;;;3.72;3.30;;;;;;;;;;5201809;27;20086;-77
2022/03/06 01:54:50;;;;;;;3.72;3.00;;;;;;;;;;5183980;27;20087;-76
2022/03/06 01:57:16;;;;;;;4.18;2.83;;;;;;;;;;5205898;27;20094;-76
2022/03/06 01:59:42;;;;;;;3.47;3.05;;;;;;;;;;5201911;27;20084;-75
2022/03/06 02:02:08;;;;;;;4.07;3.05;;;;;;;;;;5165016;27;20175;-75
2022/03/06 02:04:34;;;;;;;4.68;3.10;;;;;;;;;;5201507;27;20425;-77
2022/03/06 02:07:00;;;;;;;4.10;3.03;;;;;;;;;;5201540;27;20074;-78
2022/03/06 02:09:27;;;;;;;4.50;2.45;;;;;;;;;;5182108;27;20078;-75
2022/03/06 02:14:37;;;;;;;2.70;2.50;;;;;;;;;;5181815;27;20069;-76
2022/03/06 02:17:04;;;;;;;3.45;3.15;;;;;;;;;;5181694;27;20101;-76
2022/03/06 02:19:30;;;;;;;3.20;2.83;;;;;;;;;;5182004;27;20071;-76
2022/03/06 02:21:56;;;;;;;3.42;3.03;;;;;;;;;;5190584;27;20187;-75
2022/03/06 02:24:22;;;;;;;4.55;3.10;;;;;;;;;;5201287;27;20464;-75
2022/03/06 02:26:47;;;;;;;3.30;3.00;;;;;;;;;;5201119;27;20068;-73
2022/03/06 02:29:13;;;;;;;3.50;3.20;;;;;;;;;;5201150;27;20116;-74
2022/03/06 02:31:39;;;;;;;3.30;3.00;;;;;;;;;;5200853;27;20480;-74
2022/03/06 02:34:06;;;;;;;5.87;3.35;;;;;;;;;;5201089;27;20084;-73
2022/03/06 02:36:32;;;;;;;3.45;3.03;;;;;;;;;;5201049;27;20508;-73
2022/03/06 02:38:59;;;;;;;3.10;2.80;;;;;;;;;;5182106;27;20097;-72
2022/03/06 02:41:24;;;;;;;4.80;2.90;;;;;;;;;;5200989;27;20065;-72
2022/03/06 02:43:50;;;;;;;3.55;3.03;;;;;;;;;;5181939;27;20119;-71
2022/03/06 02:46:16;;;;;;;5.40;3.25;;;;;;;;;;5201161;27;20188;-73
2022/03/06 02:48:43;;;;;;;4.03;3.20;;;;;;;;;;5199628;27;20086;-72
2022/03/06 02:51:09;;;;;;;3.92;2.80;;;;;;;;;;5200922;27;20073;-72
2022/03/06 02:53:35;;;;;;;4.30;3.40;;;;;;;;;;5200822;27;20441;-73
2022/03/06 02:56:02;;;;;;;4.45;3.20;;;;;;;;;;5200853;27;20120;-72
2022/03/06 02:58:28;;;;;;;4.55;3.30;;;;;;;;;;5181970;27;20157;-77
2022/03/06 03:00:54;;;;;;;4.03;3.08;;;;;;;;;;5182320;27;20073;-76
2022/03/06 03:03:20;;;;;;;3.90;3.20;;;;;;;;;;5181643;27;20069;-76
2022/03/06 03:05:47;;;;;;;3.53;2.80;;;;;;;;;;5200818;27;20424;-77
2022/03/06 03:08:13;;;;;;;5.75;3.00;;;;;;;;;;5181762;27;20093;-74
2022/03/06 03:10:39;;;;;;;3.33;2.87;;;;;;;;;;5200827;27;20485;-74
2022/03/06 03:13:06;;;;;;;3.12;2.83;;;;;;;;;;5200814;27;20085;-74
2022/03/06 03:15:32;;;;;;;3.30;2.72;;;;;;;;;;5199016;27;20109;-74
2022/03/06 03:17:58;;;;;;;3.47;2.87;;;;;;;;;;5201136;27;20414;-74
2022/03/06 03:20:24;;;;;;;3.45;3.05;;;;;;;;;;5181766;27;20082;-74
2022/03/06 03:22:50;;;;;;;3.12;2.90;;;;;;;;;;5181414;27;20085;-75
2022/03/06 03:25:16;;;;;;;3.58;3.12;;;;;;;;;;5181415;27;20078;-75
2022/03/06 03:27:42;;;;;;;4.20;2.78;;;;;;;;;;5164217;27;20099;-74
2022/03/06 03:30:09;;;;;;;4.37;3.15;;;;;;;;;;5181900;27;20089;-76
2022/03/06 03:32:35;;;;;;;3.75;2.42;;;;;;;;;;5181364;27;20603;-75
2022/03/06 03:35:02;;;;;;;2.97;2.70;;;;;;;;;;5198757;27;20434;-74
2022/03/06 03:37:28;;;;;;;3.62;3.30;;;;;;;;;;5181383;27;20093;-74
2022/03/06 03:39:54;;;;;;;4.93;2.87;;;;;;;;;;5200634;27;20433;-74
2022/03/06 03:42:20;;;;;;;3.78;2.75;;;;;;;;;;5200625;27;20429;-75
2022/03/06 03:44:46;;;;;;;3.60;3.30;;;;;;;;;;5164175;27;20227;-74
2022/03/06 03:47:12;;;;;;;3.90;2.90;;;;;;;;;;5200608;27;20563;-75
2022/03/06 03:49:38;;;;;;;3.78;3.30;;;;;;;;;;5201159;27;20196;-76
2022/03/06 03:52:04;;;;;;;3.65;2.85;;;;;;;;;;5200679;27;20057;-76
2022/03/06 03:54:30;;;;;;;3.28;2.72;;;;;;;;;;5181250;27;20089;-73
2022/03/06 03:56:56;;;;;;;3.87;2.97;;;;;;;;;;5181656;27;20089;-75
2022/03/06 03:59:22;;;;;;;2.42;2.22;;;;;;;;;;5200492;27;20057;-75
2022/03/06 04:01:48;;;;;;;2.92;2.62;;;;;;;;;;5181219;27;20099;-75
2022/03/06 04:04:14;;;;;;;4.18;2.90;;;;;;;;;;5181644;27;20073;-75
2022/03/06 04:06:40;;;;;;;3.03;2.72;;;;;;;;;;5181170;27;20065;-73
2022/03/06 04:09:06;;;;;;;2.92;2.62;;;;;;;;;;5181642;27;20475;-75
2022/03/06 04:11:32;;;;;;;2.87;2.35;;;;;;;;;;5181829;27;20079;-74
2022/03/06 04:13:58;;;;;;;3.58;2.70;;;;;;;;;;5200795;27;20171;-75
2022/03/06 04:16:24;;;;;;;3.17;2.50;;;;;;;;;;5200797;27;20200;-76
2022/03/06 04:18:50;;;;;;;2.80;2.60;;;;;;;;;;5200307;27;20527;-74
2022/03/06 04:21:16;;;;;;;3.28;2.50;;;;;;;;;;5200388;27;20405;-75
2022/03/06 04:23:42;;;;;;;2.47;2.28;;;;;;;;;;5180915;27;20164;-75
2022/03/06 04:26:08;;;;;;;3.30;2.58;;;;;;;;;;5181347;27;20066;-74
2022/03/06 04:28:35;;;;;;;3.20;2.58;;;;;;;;;;5200339;27;20108;-76
2022/03/06 04:31:01;;;;;;;3.05;2.40;;;;;;;;;;5200683;27;20516;-77
2022/03/06 04:33:27;;;;;;;2.72;2.42;;;;;;;;;;5163782;27;20066;-78
2022/03/06 04:35:53;;;;;;;2.60;2.37;;;;;;;;;;5181536;27;20514;-78
2022/03/06 04:38:19;;;;;;;2.47;2.28;;;;;;;;;;5200526;27;20066;-78
2022/03/06 04:40:46;;;;;;;3.17;2.47;;;;;;;;;;5200424;27;20081;-72
2022/03/06 04:43:12;;;;;;;3.08;2.72;;;;;;;;;;5200177;27;20195;-70
2022/03/06 04:45:38;;;;;;;3.22;2.40;;;;;;;;;;5200225;27;20086;-73
2022/03/06 04:48:04;;;;;;;2.62;2.35;;;;;;;;;;5201082;27;20105;-73
2022/03/06 04:50:30;;;;;;;2.97;2.37;;;;;;;;;;5182172;27;20544;-74
2022/03/06 04:52:56;;;;;;;2.67;2.35;;;;;;;;;;5164601;27;20174;-71
2022/03/06 04:55:23;;;;;;;2.80;2.50;;;;;;;;;;5182116;27;20089;-73
2022/03/06 04:57:49;;;;;;;5.65;2.60;;;;;;;;;;5201496;27;20094;-72
2022/03/06 05:00:16;;;;;;;3.12;2.80;;;;;;;;;;5201618;27;20150;-73
2022/03/06 05:02:42;;;;;;;2.60;2.40;;;;;;;;;;5180651;27;20117;-77
2022/03/06 05:05:09;;;;;;;2.90;2.60;;;;;;;;;;5201933;27;20066;-77
2022/03/06 05:07:35;;;;;;;2.80;2.50;;;;;;;;;;5201958;27;20082;-72
2022/03/06 05:10:02;;;;;;;3.55;2.87;;;;;;;;;;5201707;27;20152;-74
2022/03/06 05:12:28;;;;;;;2.45;2.25;;;;;;;;;;5199942;27;20508;-75
2022/03/06 05:14:54;;;;;;;2.92;2.50;;;;;;;;;;5182529;27;20192;-77
2022/03/06 05:17:20;;;;;;;4.55;2.97;;;;;;;;;;5164652;27;20097;-74
2022/03/06 05:19:46;;;;;;;4.20;3.83;;;;;;;;;;5201320;27;20437;-76
2022/03/06 05:22:12;;;;;;;3.62;3.33;;;;;;;;;;5182104;27;20165;-74
2022/03/06 05:24:38;;;;;;;3.40;3.10;;;;;;;;;;5201942;27;20481;-73
2022/03/06 05:27:05;;;;;;;3.33;2.87;;;;;;;;;;5182185;27;20070;-72
2022/03/06 05:29:33;;;;;;;2.80;2.60;;;;;;;;;;5201693;27;20104;-74
2022/03/06 05:31:59;;;;;;;3.65;2.53;;;;;;;;;;5182297;27;20081;-74
2022/03/06 05:34:25;;;;;;;3.12;2.78;;;;;;;;;;5201124;27;20093;-74
2022/03/06 05:36:52;;;;;;;2.85;2.55;;;;;;;;;;5164365;27;20543;-73
2022/03/06 05:39:18;;;;;;;3.10;2.80;;;;;;;;;;5201226;27;20109;-73
2022/03/06 05:41:44;;;;;;;3.67;2.70;;;;;;;;;;5183099;27;20104;-76
2022/03/06 05:44:10;;;;;;;2.90;2.60;;;;;;;;;;5182310;27;20070;-75
2022/03/06 05:46:36;;;;;;;2.50;2.30;;;;;;;;;;5182467;27;20104;-71
2022/03/06 05:49:02;;;;;;;2.90;2.55;;;;;;;;;;5201571;27;20406;-72
2022/03/06 05:51:28;;;;;;;2.90;2.20;;;;;;;;;;5182019;27;20078;-72
2022/03/06 05:53:54;;;;;;;2.95;2.35;;;;;;;;;;5181613;27;20085;-72
2022/03/06 05:56:20;;;;;;;2.75;2.40;;;;;;;;;;5201513;27;20070;-72
2022/03/06 05:58:46;;;;;;;3.45;2.50;;;;;;;;;;5200923;27;20069;-72
2022/03/06 06:01:13;;;;;;;2.60;2.37;;;;;;;;;;5201170;27;20489;-70
2022/03/06 06:03:39;;;;;;;3.05;2.50;;;;;;;;;;5181690;27;20660;-71
2022/03/06 06:06:05;;;;;;;2.90;2.60;;;;;;;;;;5182687;27;20155;-69
2022/03/06 06:08:31;;;;;;;4.70;2.75;;;;;;;;;;5164674;27;20437;-69
2022/03/06 06:10:57;;;;;;;4.00;2.60;;;;;;;;;;5181808;27;20154;-69
2022/03/06 06:13:23;;;;;;;2.97;2.62;;;;;;;;;;5201006;27;20199;-69
2022/03/06 06:15:49;;;;;;;2.72;2.22;;;;;;;;;;5201241;27;20092;-72
2022/03/06 06:18:16;;;;;;;2.67;2.12;;;;;;;;;;5181603;27;20081;-69
2022/03/06 06:20:42;;;;;;;2.87;2.47;;;;;;;;;;5181708;27;20094;-67
2022/03/06 06:23:08;;;;;;;4.22;2.20;;;;;;;;;;5201237;27;20105;-69
2022/03/06 06:25:34;;;;;;;3.12;2.40;;;;;;;;;;5181885;27;20143;-70
2022/03/06 06:28:00;;;;;;;3.10;2.60;;;;;;;;;;5200892;27;20079;-68
2022/03/06 06:30:26;;;;;;;3.35;2.53;;;;;;;;;;5200765;27;20401;-68
2022/03/06 06:32:52;;;;;;;4.35;2.53;;;;;;;;;;5201046;27;20104;-68
2022/03/06 06:35:18;;;;;;;3.25;2.30;;;;;;;;;;5200731;27;20084;-72
2022/03/06 06:37:44;;;;;;;2.45;2.05;;;;;;;;;;5181616;27;20473;-69
2022/03/06 06:40:10;;;;;;;3.42;3.00;;;;;;;;;;5200932;27;20088;-70
2022/03/06 06:42:36;;;;;;;3.28;2.53;;;;;;;;;;5181529;27;20504;-70
2022/03/06 06:45:02;;;;;;;2.50;2.30;;;;;;;;;;5181542;27;20601;-69
2022/03/06 06:47:29;;;;;;;3.45;2.58;;;;;;;;;;5181611;27;20095;-69
2022/03/06 06:49:55;;;;;;;3.22;2.83;;;;;;;;;;5200728;27;20092;-70
2022/03/06 06:52:21;;;;;;;3.40;2.78;;;;;;;;;;5200813;27;20105;-69
2022/03/06 06:54:47;;;;;;;2.85;2.55;;;;;;;;;;5201323;27;20186;-69
2022/03/06 06:57:13;;;;;;;2.55;2.35;;;;;;;;;;5182000;27;20073;-71
2022/03/06 06:59:38;;;;;;;4.05;2.15;;;;;;;;;;5181683;27;20175;-70
2022/03/06 07:02:05;;;;;;;2.47;2.20;;;;;;;;;;5181811;27;20473;-71
2022/03/06 07:04:31;;;;;;;3.22;2.60;;;;;;;;;;5198988;27;20503;-70
2022/03/06 07:06:57;;;;;;;2.97;2.47;;;;;;;;;;5181915;27;20085;-70
2022/03/06 07:09:23;;;;;;;2.60;2.40;;;;;;;;;;5200442;27;20078;-71
2022/03/06 07:11:49;;;;;;;3.22;2.55;;;;;;;;;;5201051;27;20470;-71
2022/03/06 07:14:15;;;;;;;3.80;2.37;;;;;;;;;;5200671;27;20289;-68
2022/03/06 07:16:43;;;;;;;3.00;2.20;;;;;;;;;;5200559;27;20104;-67
2022/03/06 07:19:09;;;;;;;3.83;2.50;;;;;;;;;;5181396;27;20105;-64
2022/03/06 07:21:35;;;;;;;4.32;2.70;;;;;;;;;;5200481;27;20109;-67
2022/03/06 07:24:01;;;;;;;2.53;2.33;;;;;;;;;;5200636;27;20434;-67
2022/03/06 07:26:27;;;;;;;3.00;2.70;;;;;;;;;;5200933;27;20097;-68
2022/03/06 07:28:53;;;;;;;2.92;2.30;;;;;;;;;;5200597;27;20423;-68
2022/03/06 07:31:19;;;;;;;4.20;2.62;;;;;;;;;;5200604;27;20180;-70
2022/03/06 07:33:45;;;;;;;4.57;2.65;;;;;;;;;;5200485;27;20069;-68
2022/03/06 07:36:11;;;;;;;2.60;2.30;;;;;;;;;;5200699;27;20400;-67
2022/03/06 07:42:16;;;;;;;;;;;;;;;;;;5130231;27;20170;-67
2022/03/06 07:44:42;;;;;;;2.80;2.50;;;;;;;;;;5179433;27;20024;-69
2022/03/06 07:47:08;;;;;;;3.12;2.10;;;;;;;;;;5179225;27;20520;-69
2022/03/06 07:49:34;;;;;;;3.17;2.40;;;;;;;;;;5179338;27;20112;-68
2022/03/06 07:53:03;;;;;;;3.08;2.47;;;;;;;;;;5178712;27;20093;-70
2022/03/06 08:19:05;;;;;;;4.03;2.20;;;;;;;;;;5072218;28;20091;-69
2022/03/06 08:25:31;;;;;;;2.53;2.20;;;;;;;;;;5224191;27;20117;-67
2022/03/06 08:29:18;;;;;;;3.60;2.70;;;;;;;;;;5153979;27;20606;-70
2022/03/06 08:32:41;;;;;;;4.35;2.90;;;;;;;;;;5074354;27;20093;-66
2022/03/06 08:35:08;;;;;;;2.75;2.37;;;;;;;;;;5128683;27;20118;-65
2022/03/06 08:37:53;;;;;;;2.85;2.65;;;;;;;;;;5147754;27;20101;-66
2022/03/06 08:40:19;;;;;;;2.62;2.42;;;;;;;;;;5240254;27;20081;-66
2022/03/06 08:42:46;;;;;;;3.10;2.75;;;;;;;;;;5238079;27;20084;-65
2022/03/06 08:45:12;;;;;;;2.85;2.22;;;;;;;;;;5241369;27;20179;-65
2022/03/06 08:47:38;;;;;;;3.90;2.55;;;;;;;;;;5241650;27;20100;-65
2022/03/06 08:50:05;;;;;;;3.20;2.60;;;;;;;;;;5242731;27;20080;-66
2022/03/06 08:52:31;;;;;;;2.67;2.45;;;;;;;;;;5242050;27;20100;-64
2022/03/06 08:54:57;;;;;;;3.85;2.80;;;;;;;;;;5241891;27;20163;-63
2022/03/06 08:57:23;;;;;;;5.07;2.50;;;;;;;;;;5241489;27;20092;-65
2022/03/06 08:59:50;;;;;;;3.28;2.70;;;;;;;;;;5242194;27;20104;-67
2022/03/06 09:02:16;;;;;;;3.05;2.50;;;;;;;;;;5242668;27;20064;-66
2022/03/06 09:04:42;;;;;;;4.10;2.67;;;;;;;;;;5242239;27;20103;-67
2022/03/06 09:07:09;;;;;;;3.37;2.65;;;;;;;;;;5241778;27;20073;-67
2022/03/06 09:09:35;;;;;;;3.20;2.83;;;;;;;;;;5204684;27;20181;-68
2022/03/06 09:12:01;;;;;;;3.00;2.70;;;;;;;;;;5242731;27;20440;-65
2022/03/06 09:14:27;;;;;;;3.75;2.45;;;;;;;;;;5223055;27;20084;-68
2022/03/06 09:16:53;;;;;;;3.47;2.60;;;;;;;;;;5241755;27;20065;-68
2022/03/06 09:19:20;;;;;;;4.57;2.92;;;;;;;;;;5203655;27;20089;-68
2022/03/06 09:21:46;;;;;;;3.47;2.50;;;;;;;;;;5220359;27;20391;-66
2022/03/06 09:24:12;;;;;;;4.40;2.90;;;;;;;;;;5240951;27;20681;-71
2022/03/06 09:26:39;;;;;;;3.70;2.72;;;;;;;;;;5220241;27;20499;-77
2022/03/06 09:29:05;;;;;;;7.47;3.25;;;;;;;;;;5240318;27;20097;-78
2022/03/06 09:31:31;;;;;;;3.15;2.28;;;;;;;;;;5220882;27;20088;-68
2022/03/06 09:33:58;;;;;;;3.05;2.67;;;;;;;;;;5186843;27;20615;-70
2022/03/06 09:36:24;;;;;;;3.62;3.00;;;;;;;;;;5239436;27;20092;-71
2022/03/06 09:38:49;;;;;;;4.07;3.05;;;;;;;;;;5242478;27;20499;-69
2022/03/06 09:41:17;;;;;;;3.30;3.00;;;;;;;;;;5243225;27;20106;-74
2022/03/06 09:43:43;;;;;;;3.65;2.85;;;;;;;;;;5206073;27;20162;-78
2022/03/06 09:46:09;;;;;;;3.97;2.62;;;;;;;;;;5188281;27;20093;-76
2022/03/06 09:48:36;;;;;;;3.42;2.62;;;;;;;;;;5243010;27;20432;-78
2022/03/06 09:51:03;;;;;;;3.08;2.28;;;;;;;;;;5224179;27;20096;-74
2022/03/06 09:53:30;;;;;;;5.00;2.62;;;;;;;;;;5207779;27;20084;-71
2022/03/06 09:55:56;;;;;;;5.28;2.83;;;;;;;;;;5206828;27;20170;-71
2022/03/06 09:58:22;;;;;;;4.05;2.97;;;;;;;;;;5224701;27;20064;-70
2022/03/06 10:00:48;;;;;;;3.65;2.87;;;;;;;;;;5224311;27;20507;-72
2022/03/06 10:03:19;;;;;;;2.80;2.58;;;;;;;;;;5206506;27;20632;-70
2022/03/06 10:05:57;;;;;;;4.12;3.30;;;;;;;;;;5241405;27;20431;-70
2022/03/06 10:50:01;;;;;;;3.45;2.90;;;;;;;;;;3871021;37;20114;-68
2022/03/06 10:52:27;;;;;;;4.03;2.60;;;;;;;;;;4419537;32;20569;-69
2022/03/06 10:54:57;;;;;;;3.12;2.75;;;;;;;;;;4418818;32;20116;-67
2022/03/06 10:57:24;;;;;;;3.33;2.83;;;;;;;;;;4416052;32;20207;-69
2022/03/06 10:59:51;;;;;;;4.87;2.60;;;;;;;;;;4405257;32;20525;-68
2022/03/06 11:02:17;;;;;;;4.03;2.75;;;;;;;;;;4416805;32;20460;-69
2022/03/06 11:04:46;;;;;;;4.68;2.92;;;;;;;;;;4418220;32;20120;-70
2022/03/06 11:07:13;;;;;;;3.62;2.70;;;;;;;;;;4416943;32;20522;-69
2022/03/06 11:09:39;;;;;;;3.83;3.00;;;;;;;;;;4416296;32;20104;-69
2022/03/06 11:12:05;;;;;;;3.78;2.70;;;;;;;;;;4385231;32;20209;-69
2022/03/06 11:14:32;;;;;;;4.75;2.90;;;;;;;;;;4416151;32;20514;-70
2022/03/06 11:16:59;;;;;;;3.60;3.05;;;;;;;;;;4406838;32;20117;-69
2022/03/06 11:19:26;;;;;;;4.72;3.90;;;;;;;;;;4417771;32;20604;-69
2022/03/06 11:22:02;;;;;;;5.12;4.12;;;;;;;;;;4412576;32;20468;-69
2022/03/06 11:24:29;;;;;;;6.78;4.10;;;;;;;;;;4377242;32;20091;-70
2022/03/06 11:27:21;;;;;;;3.85;3.45;;;;;;;;;;4389527;32;20073;-69
2022/03/06 11:30:08;;;;;;;3.95;3.42;;;;;;;;;;4418738;32;20188;-68
2022/03/06 11:32:59;;;;;;;4.12;3.60;;;;;;;;;;4403853;32;20507;-71
2022/03/06 11:57:10;;;;;;;4.60;3.10;;;;;;;;;;4107251;34;20166;-69
2022/03/06 12:23:06;;;;;;;6.57;3.65;;;;;;;;;;4279643;33;20127;-67
2022/03/06 12:26:44;;;;;;;4.70;3.35;;;;;;;;;;4429393;28;20447;-67
2022/03/06 12:29:10;;;;;;;4.62;3.87;;;;;;;;;;4288011;33;20111;-68
2022/03/06 12:31:37;;;;;;;4.90;3.30;;;;;;;;;;4273740;33;20139;-68
2022/03/06 12:34:35;;;;;;;4.30;3.45;;;;;;;;;;4284578;33;20107;-67
2022/03/06 12:37:01;;;;;;;4.20;3.30;;;;;;;;;;4286258;33;20112;-69
2022/03/06 12:39:27;;;;;;;3.33;3.03;;;;;;;;;;4273104;33;20220;-68
2022/03/06 12:41:53;;;;;;;4.05;3.42;;;;;;;;;;4282065;33;20510;-68
2022/03/06 12:44:24;;;;;;;3.45;3.15;;;;;;;;;;4289156;33;20404;-68
2022/03/06 12:46:50;;;;;;;3.95;3.40;;;;;;;;;;4276374;33;20115;-68
2022/03/06 12:49:16;;;;;;;3.80;3.10;;;;;;;;;;4297290;33;20111;-70
2022/03/06 12:51:42;;;;;;;3.95;3.40;;;;;;;;;;4290692;33;20233;-69
2022/03/06 13:03:08;;;;;;;4.30;3.20;;;;;;;;;;4135756;34;20562;-69
2022/03/06 13:11:39;;;;;;;5.60;3.22;;;;;;;;;;4068448;31;20079;-70
2022/03/06 13:14:08;;;;;;;4.87;3.60;;;;;;;;;;4306664;33;20636;-70
2022/03/06 13:16:33;;;;;;;3.90;3.00;;;;;;;;;;4322553;33;20105;-70
2022/03/06 13:19:03;;;;;;;3.55;3.00;;;;;;;;;;4318436;33;20126;-69
2022/03/06 13:21:29;;;;;;;4.47;3.37;;;;;;;;;;4303411;33;20509;-72
2022/03/06 13:23:58;;;;;;;4.32;3.40;;;;;;;;;;4316458;33;20206;-72
2022/03/06 13:26:25;;;;;;;6.10;4.35;;;;;;;;;;4304959;33;20106;-72
2022/03/06 13:29:25;;;;;;;;;;;;;;;;;;;;;
2022/03/06 13:50:01;;;;;;;3.72;3.33;;;;;;;;;;4199294;34;20598;-70
2022/03/06 13:52:34;;;;;;;4.68;3.30;;;;;;;;;;4201412;34;20177;-71
2022/03/06 13:55:08;;;;;;;5.00;3.70;;;;;;;;;;4268514;33;20540;-71
2022/03/06 13:57:47;;;;;;;;;;;;;;;;;;;;;
2022/03/06 14:01:36;;;;;;;;;;;;;;;;;;;;;
2022/03/06 14:22:45;;;;;;;4.68;3.72;;;;;;;;;;1192903;31;20140;-70
2022/03/06 14:25:11;;;;;;;4.32;3.65;;;;;;;;;;4232515;33;20117;-69
2022/03/06 14:27:37;;;;;;;5.40;3.75;;;;;;;;;;4228197;33;20489;-70
2022/03/06 14:30:04;;;;;;;3.85;3.30;;;;;;;;;;4229274;33;20136;-71
2022/03/06 14:32:51;;;;;;;3.60;3.12;;;;;;;;;;4229364;33;20109;-68
2022/03/06 14:55:28;;;;;;;7.50;5.80;;;;;;;;;;4270487;33;20152;-73
2022/03/06 14:57:54;;;;;;;8.40;6.15;;;;;;;;;;4262947;33;20110;-73
2022/03/06 15:00:32;;;;;;;5.85;4.78;;;;;;;;;;4274031;33;20467;-73
2022/03/06 15:04:44;;;;;;;;;;;;;;;;;;;;;
2022/03/06 15:21:49;;;;;;;5.27;4.50;;;;;;;;;;4302586;33;20107;-71
2022/03/06 15:24:15;;;;;;;5.20;4.70;;;;;;;;;;4286910;33;20192;-76
2022/03/06 15:26:41;;;;;;;7.62;5.60;;;;;;;;;;4277676;33;20103;-72
2022/03/06 15:29:07;;;;;;;7.37;5.20;;;;;;;;;;4277852;33;20107;-73
2022/03/06 15:31:33;;;;;;;9.30;5.32;;;;;;;;;;4277052;33;20202;-74
2022/03/06 15:34:00;;;;;;;5.00;4.43;;;;;;;;;;4290214;33;20126;-73
2022/03/06 16:10:17;;;;;;;4.53;3.40;;;;;;;;;;4449222;28;20100;-74
2022/03/06 16:12:43;;;;;;;6.28;4.07;;;;;;;;;;4275934;33;20096;-74
2022/03/06 16:15:09;;;;;;;5.50;4.37;;;;;;;;;;4276086;33;20215;-75
2022/03/06 16:17:35;;;;;;;7.00;4.78;;;;;;;;;;4250698;33;20612;-74
2022/03/06 16:20:01;;;;;;;6.18;4.97;;;;;;;;;;4276305;33;20116;-74
2022/03/06 16:31:25;;;;;;;4.15;3.40;;;;;;;;;;4098221;34;20218;-77
2022/03/06 16:33:51;;;;;;;5.05;3.83;;;;;;;;;;4175386;34;20200;-69
2022/03/06 16:36:17;;;;;;;5.87;3.72;;;;;;;;;;4210756;34;20221;-70
2022/03/06 16:38:43;;;;;;;4.95;3.58;;;;;;;;;;4269779;33;20124;-76
2022/03/06 16:41:09;;;;;;;4.53;3.70;;;;;;;;;;4274573;33;21214;-74
2022/03/06 17:30:50;;;;;;;5.62;4.53;;;;;;;;;;1207393;27;20387;-70
2022/03/06 17:33:16;;;;;;;7.30;3.92;;;;;;;;;;4304877;33;20107;-71
2022/03/06 17:35:42;;;;;;;5.05;3.90;;;;;;;;;;4318240;33;20098;-70
2022/03/06 17:38:10;;;;;;;5.35;3.95;;;;;;;;;;4304870;33;20107;-71
2022/03/06 17:40:39;;;;;;;5.22;3.90;;;;;;;;;;4310039;33;20103;-69
2022/03/06 17:43:07;;;;;;;5.65;4.35;;;;;;;;;;4303846;33;20094;-69
2022/03/06 17:45:34;;;;;;;7.10;4.93;;;;;;;;;;4290530;33;20190;-72
2022/03/06 17:48:00;;;;;;;5.95;5.10;;;;;;;;;;4303321;33;20126;-70
2022/03/06 17:50:26;;;;;;;7.93;4.90;;;;;;;;;;4290431;33;20161;-68
2022/03/06 17:52:52;;;;;;;5.93;4.87;;;;;;;;;;4304002;33;20529;-67
2022/03/06 17:55:18;;;;;;;4.80;4.03;;;;;;;;;;4303552;33;20112;-67
2022/03/06 17:57:44;;;;;;;6.20;4.12;;;;;;;;;;4309491;33;20106;-69
2022/03/06 18:00:11;;;;;;;4.53;3.65;;;;;;;;;;4304819;33;20102;-72
2022/03/06 18:02:37;;;;;;;4.87;4.12;;;;;;;;;;4304555;33;20126;-73
2022/03/06 18:05:04;;;;;;;4.75;4.25;;;;;;;;;;4318046;33;20099;-73
2022/03/06 18:07:30;;;;;;;5.30;4.25;;;;;;;;;;4318205;33;20603;-71
2022/03/06 18:09:56;;;;;;;4.40;4.00;;;;;;;;;;4304743;33;20126;-71
2022/03/06 18:12:22;;;;;;;6.68;4.75;;;;;;;;;;4317989;33;20197;-76
2022/03/06 18:14:48;;;;;;;9.20;5.90;;;;;;;;;;4304782;33;20170;-76
2022/03/06 18:17:14;;;;;;;10.35;5.97;;;;;;;;;;4318412;33;20202;-77
2022/03/06 18:19:40;;;;;;;8.98;5.32;;;;;;;;;;4304362;33;20115;-77
2022/03/06 18:22:06;;;;;;;6.45;4.65;;;;;;;;;;4304978;33;20122;-76
2022/03/06 18:24:32;;;;;;;6.35;4.62;;;;;;;;;;4292042;33;20196;-76
2022/03/06 18:26:59;;;;;;;6.30;4.68;;;;;;;;;;4304193;33;20466;-75
2022/03/06 18:29:25;;;;;;;5.85;4.47;;;;;;;;;;4318033;33;20194;-77
2022/03/06 18:31:51;;;;;;;6.72;3.97;;;;;;;;;;4304100;33;20111;-76
2022/03/06 18:34:19;;;;;;;5.72;3.97;;;;;;;;;;4318044;33;20110;-74
2022/03/06 18:36:46;;;;;;;5.40;4.28;;;;;;;;;;4318212;33;20103;-75
2022/03/06 18:39:13;;;;;;;7.20;4.82;;;;;;;;;;4305311;33;20115;-76
2022/03/06 18:41:42;;;;;;;8.43;5.12;;;;;;;;;;4292137;33;20135;-77
2022/03/06 18:44:09;;;;;;;7.85;4.93;;;;;;;;;;4281711;33;20197;-76
2022/03/06 18:46:36;;;;;;;6.37;5.47;;;;;;;;;;4304366;33;20118;-76
2022/03/06 18:49:03;;;;;;;5.97;4.55;;;;;;;;;;4304271;33;21007;-76
2022/03/06 18:51:29;;;;;;;8.93;7.97;;;;;;;;;;4292021;33;20087;-76
2022/03/06 18:53:55;;;;;;;7.15;5.03;;;;;;;;;;4304527;33;20130;-76
2022/03/06 18:56:21;;;;;;;7.82;5.37;;;;;;;;;;4304389;33;20111;-77
2022/03/06 18:58:48;;;;;;;6.00;5.07;;;;;;;;;;4304116;33;20224;-76
2022/03/06 19:01:16;;;;;;;7.28;5.35;;;;;;;;;;4319631;33;20130;-76
2022/03/06 19:03:42;;;;;;;8.75;5.55;;;;;;;;;;4320059;33;20098;-77
2022/03/06 19:06:08;;;;;;;9.05;6.57;;;;;;;;;;4306354;33;20119;-77
2022/03/06 19:08:36;;;;;;;8.43;5.47;;;;;;;;;;4320246;33;20584;-76
2022/03/06 19:11:03;;;;;;;8.65;5.93;;;;;;;;;;4319728;33;20095;-77
2022/03/06 19:13:29;;;;;;;7.43;5.97;;;;;;;;;;4306346;33;20110;-77
2022/03/06 19:15:55;;;;;;;7.72;6.28;;;;;;;;;;4306296;33;20463;-77
2022/03/06 19:18:22;;;;;;;8.82;6.60;;;;;;;;;;4306203;33;20114;-77
2022/03/06 19:20:51;;;;;;;7.68;6.07;;;;;;;;;;4281787;33;20143;-77
2022/03/06 19:23:17;;;;;;;9.98;6.47;;;;;;;;;;4306183;33;20095;-84
2022/03/06 19:25:43;;;;;;;7.40;6.20;;;;;;;;;;4306226;33;20149;-84
2022/03/06 19:28:10;;;;;;;7.35;6.18;;;;;;;;;;4306640;33;20404;-80
2022/03/06 19:30:37;;;;;;;8.38;6.68;;;;;;;;;;4306867;33;20121;-82
2022/03/06 19:33:04;;;;;;;9.45;7.03;;;;;;;;;;4296447;33;20121;-85
2022/03/06 19:35:31;;;;;;;13.20;8.85;;;;;;;;;;4295445;33;20183;-86
2022/03/06 19:37:58;;;;;;;6.32;4.95;;;;;;;;;;4284792;33;20117;-87
2022/03/06 19:40:24;;;;;;;8.48;5.93;;;;;;;;;;4315020;33;20084;-87
2022/03/06 19:42:51;;;;;;;8.38;6.43;;;;;;;;;;4316574;33;20086;-87
2022/03/06 19:45:17;;;;;;;8.10;6.10;;;;;;;;;;4315489;33;20529;-85
2022/03/06 19:47:47;;;;;;;6.25;4.20;;;;;;;;;;4316467;33;20107;-85
2022/03/06 19:50:15;;;;;;;5.55;4.53;;;;;;;;;;4332659;33;20096;-86
2022/03/06 19:52:41;;;;;;;7.05;4.62;;;;;;;;;;4309299;33;20158;-86
2022/03/06 19:55:08;;;;;;;5.22;4.03;;;;;;;;;;4333371;33;20074;-86
2022/03/06 19:57:35;;;;;;;4.90;3.70;;;;;;;;;;4334290;33;20161;-85
2022/03/06 20:00:03;;;;;;;4.35;3.50;;;;;;;;;;4335509;33;20099;-86
2022/03/06 20:02:29;;;;;;;5.32;3.80;;;;;;;;;;4290441;33;20119;-85
2022/03/06 20:04:55;;;;;;;4.00;3.30;;;;;;;;;;4316254;33;20170;-85
2022/03/06 20:07:22;;;;;;;3.65;3.05;;;;;;;;;;4313284;33;20139;-86
2022/03/06 20:09:50;;;;;;;3.70;3.30;;;;;;;;;;4327764;33;20091;-86
2022/03/06 20:12:16;;;;;;;3.78;3.28;;;;;;;;;;4329274;33;20122;-85